createdAt,value
2023-05-25T00:00:12.367Z,99991.27
2023-05-25T00:02:40.248Z,99993.59
2023-05-25T00:05:09.155Z,100000.32
2023-05-25T00:07:37.101Z,99998.71
2023-05-25T00:10:07.510Z,99998.66
2023-05-25T00:12:35.189Z,99998.41
2023-05-25T00:15:02.903Z,99998.55
2023-05-25T00:17:32.287Z,99995.76
2023-05-25T00:20:08.897Z,99996.63
2023-05-25T00:22:37.603Z,99996.75
2023-05-25T00:25:06.504Z,99996.75
2023-05-25T00:27:34.663Z,99999.36
2023-05-25T00:30:02.338Z,99999.84
2023-05-25T00:32:30.029Z,100001.70
2023-05-25T00:34:57.654Z,100002.18
2023-05-25T00:37:26.343Z,100003.25
2023-05-25T00:39:54.006Z,99995.61
2023-05-25T00:42:22.284Z,99996.83
2023-05-25T00:44:50.044Z,99995.35
2023-05-25T00:47:18.121Z,99994.78
2023-05-25T00:49:47.726Z,99998.77
2023-05-25T00:52:17.037Z,99999.52
2023-05-25T00:54:45.714Z,100000.27
2023-05-25T00:57:13.482Z,100001.15
2023-05-25T00:59:47.288Z,99997.65
2023-05-25T01:02:17.736Z,100002.45
2023-05-25T01:04:54.203Z,100000.94
2023-05-25T01:07:24.170Z,100000.16
2023-05-25T01:09:58.435Z,99998.38
2023-05-25T01:12:28.227Z,99999.56
2023-05-25T01:14:56.196Z,99999.07
2023-05-25T01:17:26.961Z,99995.75
2023-05-25T01:20:08.129Z,99996.87
2023-05-25T01:22:39.152Z,99997.38
2023-05-25T01:25:44.461Z,99994.34
2023-05-25T01:28:21.123Z,99997.44
2023-05-25T01:30:51.128Z,100000.83
2023-05-25T01:33:21.309Z,99999.37
2023-05-25T01:35:49.086Z,99998.36
2023-05-25T01:38:18.170Z,99998.62
2023-05-25T01:40:47.068Z,99996.49
2023-05-25T01:43:17.082Z,99996.92
2023-05-25T01:45:45.203Z,99997.59
2023-05-25T01:48:19.205Z,100003.60
2023-05-25T01:50:53.992Z,100002.56
2023-05-25T01:53:31.269Z,100007.30
2023-05-25T01:56:09.616Z,100008.05
2023-05-25T01:58:47.215Z,100008.36
2023-05-25T02:01:15.500Z,100009.84
2023-05-25T02:03:43.543Z,100008.83
2023-05-25T02:06:11.507Z,100011.36
2023-05-25T02:08:39.171Z,100012.68
2023-05-25T02:11:06.932Z,100010.45
2023-05-25T02:13:34.715Z,100009.80
2023-05-25T02:16:02.726Z,100009.95
2023-05-25T02:18:32.386Z,100009.02
2023-05-25T02:21:00.351Z,100010.30
2023-05-25T02:23:27.910Z,100008.62
2023-05-25T02:25:56.703Z,100013.25
2023-05-25T02:28:24.669Z,100014.14
2023-05-25T02:30:52.336Z,100016.91
2023-05-25T02:33:20.612Z,100016.27
2023-05-25T02:35:49.607Z,100017.67
2023-05-25T02:38:17.378Z,100017.68
2023-05-25T02:40:47.381Z,100019.48
2023-05-25T02:43:15.046Z,100020.37
2023-05-25T02:45:43.033Z,100023.22
2023-05-25T02:48:10.885Z,100020.16
2023-05-25T02:50:38.650Z,100019.33
2023-05-25T02:53:08.153Z,100019.74
2023-05-25T02:55:35.816Z,100024.90
2023-05-25T02:58:03.683Z,100021.68
2023-05-25T03:00:50.953Z,100024.72
2023-05-25T03:03:19.502Z,100021.46
2023-05-25T03:05:48.376Z,100018.38
2023-05-25T03:08:16.554Z,100020.95
2023-05-25T03:10:44.321Z,100022.27
2023-05-25T03:13:12.592Z,100024.92
2023-05-25T03:15:41.393Z,100023.86
2023-05-25T03:18:11.506Z,100017.82
2023-05-25T03:20:40.790Z,100021.38
2023-05-25T03:23:10.106Z,100021.96
2023-05-25T03:25:38.480Z,100022.38
2023-05-25T03:28:06.252Z,100020.35
2023-05-25T03:30:33.920Z,100026.70
2023-05-25T03:33:01.663Z,100025.03
2023-05-25T03:35:33.541Z,100028.73
2023-05-25T03:38:02.133Z,100029.66
2023-05-25T03:40:29.690Z,100031.49
2023-05-25T03:42:57.341Z,100035.29
2023-05-25T03:45:24.905Z,100033.61
2023-05-25T03:47:52.505Z,100030.53
2023-05-25T03:50:21.461Z,100029.83
2023-05-25T03:52:49.234Z,100029.83
2023-05-25T03:55:17.725Z,100024.71
2023-05-25T03:57:45.987Z,100024.90
2023-05-25T04:00:14.628Z,100026.76
2023-05-25T04:02:43.602Z,100027.62
2023-05-25T04:05:11.647Z,100026.05
2023-05-25T04:07:41.025Z,100028.58
2023-05-25T04:10:09.313Z,100026.95
2023-05-25T04:12:37.991Z,100028.11
2023-05-25T04:15:09.366Z,100026.77
2023-05-25T04:17:48.205Z,100028.34
2023-05-25T04:20:17.555Z,100032.70
2023-05-25T04:22:45.545Z,100033.19
2023-05-25T04:25:13.508Z,100031.44
2023-05-25T04:27:42.502Z,100038.90
2023-05-25T04:30:11.805Z,100042.59
2023-05-25T04:33:11.841Z,100042.88
2023-05-25T04:35:58.887Z,100042.34
2023-05-25T04:38:26.712Z,100044.34
2023-05-25T04:40:54.476Z,100046.25
2023-05-25T04:43:26.684Z,100050.20
2023-05-25T04:46:01.080Z,100047.46
2023-05-25T04:48:32.924Z,100050.17
2023-05-25T04:51:05.520Z,100043.27
2023-05-25T04:53:35.619Z,100043.98
2023-05-25T04:56:04.719Z,100041.77
2023-05-25T04:58:33.811Z,100036.69
2023-05-25T05:01:01.439Z,100032.40
2023-05-25T05:03:30.399Z,100034.18
2023-05-25T05:05:59.058Z,100034.83
2023-05-25T05:08:29.919Z,100031.68
2023-05-25T05:10:58.681Z,100033.32
2023-05-25T05:13:27.828Z,100038.48
2023-05-25T05:15:56.258Z,100044.90
2023-05-25T05:18:24.022Z,100042.69
2023-05-25T05:20:52.502Z,100039.38
2023-05-25T05:23:20.272Z,100045.34
2023-05-25T05:25:48.869Z,100047.23
2023-05-25T05:28:17.545Z,100051.86
2023-05-25T05:30:47.770Z,100049.73
2023-05-25T05:33:16.135Z,100051.51
2023-05-25T05:35:48.848Z,100053.84
2023-05-25T05:38:21.809Z,100054.09
2023-05-25T05:40:50.234Z,100052.91
2023-05-25T05:43:23.687Z,100053.58
2023-05-25T05:45:52.476Z,100051.70
2023-05-25T05:48:20.032Z,100052.05
2023-05-25T05:50:47.816Z,100054.96
2023-05-25T05:53:16.472Z,100052.34
2023-05-25T05:55:45.145Z,100053.96
2023-05-25T05:58:15.803Z,100056.20
2023-05-25T06:00:43.531Z,100055.04
2023-05-25T06:03:11.707Z,100057.41
2023-05-25T06:05:40.150Z,100056.83
2023-05-25T06:08:10.351Z,100058.36
2023-05-25T06:10:40.301Z,100057.23
2023-05-25T06:13:09.768Z,100060.26
2023-05-25T06:15:37.440Z,100058.33
2023-05-25T06:18:09.112Z,100061.08
2023-05-25T06:20:36.874Z,100062.85
2023-05-25T06:23:04.616Z,100056.77
2023-05-25T06:25:33.710Z,100063.86
2023-05-25T06:28:02.497Z,100062.03
2023-05-25T06:30:30.159Z,100063.09
2023-05-25T06:32:58.330Z,100061.43
2023-05-25T06:35:26.510Z,100058.30
2023-05-25T06:37:54.895Z,100059.94
2023-05-25T06:40:22.551Z,100058.40
2023-05-25T06:42:52.258Z,100059.70
2023-05-25T06:45:59.782Z,100057.02
2023-05-25T06:48:28.831Z,100056.48
2023-05-25T06:50:56.515Z,100062.69
2023-05-25T06:53:25.145Z,100061.20
2023-05-25T06:55:52.867Z,100060.52
2023-05-25T06:58:20.543Z,100061.39
2023-05-25T07:00:48.290Z,100069.13
2023-05-25T07:03:17.084Z,100065.92
2023-05-25T07:05:44.966Z,100063.76
2023-05-25T07:08:14.056Z,100065.55
2023-05-25T07:10:42.263Z,100065.30
2023-05-25T07:13:11.937Z,100068.83
2023-05-25T07:15:40.146Z,100067.33
2023-05-25T07:18:13.258Z,100070.54
2023-05-25T07:20:44.439Z,100073.88
2023-05-25T07:23:12.314Z,100073.60
2023-05-25T07:25:40.591Z,100072.62
2023-05-25T07:28:08.587Z,100074.34
2023-05-25T07:30:36.640Z,100075.98
2023-05-25T07:33:05.080Z,100074.27
2023-05-25T07:35:34.520Z,100076.97
2023-05-25T07:38:06.862Z,100073.66
2023-05-25T07:40:34.452Z,100078.23
2023-05-25T07:43:08.756Z,100075.77
2023-05-25T07:45:40.222Z,100077.55
2023-05-25T07:48:08.257Z,100078.62
2023-05-25T07:50:36.167Z,100077.48
2023-05-25T07:53:03.817Z,100073.40
2023-05-25T07:55:31.486Z,100069.86
2023-05-25T07:57:59.044Z,100070.80
2023-05-25T08:00:26.810Z,100066.02
2023-05-25T08:02:54.524Z,100066.62
2023-05-25T08:05:22.146Z,100069.70
2023-05-25T08:07:49.797Z,100067.77
2023-05-25T08:10:19.608Z,100068.75
2023-05-25T08:12:49.496Z,100061.72
2023-05-25T08:15:18.007Z,100060.77
2023-05-25T08:17:49.825Z,100061.58
2023-05-25T08:20:18.438Z,100056.42
2023-05-25T08:22:46.214Z,100060.10
2023-05-25T08:25:14.702Z,100061.41
2023-05-25T08:27:42.252Z,100057.40
2023-05-25T08:30:10.534Z,100058.29
2023-05-25T08:32:38.306Z,100053.96
2023-05-25T08:35:06.784Z,100053.06
2023-05-25T08:37:34.646Z,100056.98
2023-05-25T08:40:02.941Z,100052.26
2023-05-25T08:42:30.683Z,100053.92
2023-05-25T08:44:59.186Z,100050.13
2023-05-25T08:47:26.845Z,100049.65
2023-05-25T08:49:54.759Z,100050.71
2023-05-25T08:52:23.998Z,100050.14
2023-05-25T08:54:54.636Z,100049.11
2023-05-25T08:57:51.577Z,100046.37
2023-05-25T09:00:22.151Z,100043.29
2023-05-25T09:03:12.373Z,100039.42
2023-05-25T09:05:40.160Z,100032.48
2023-05-25T09:08:08.963Z,100031.52
2023-05-25T09:10:37.853Z,100031.61
2023-05-25T09:13:19.802Z,100036.22
2023-05-25T09:15:49.746Z,100030.16
2023-05-25T09:18:18.357Z,100026.60
2023-05-25T09:20:47.304Z,100034.05
2023-05-25T09:23:16.130Z,100030.23
2023-05-25T09:25:44.320Z,100031.14
2023-05-25T09:30:42.657Z,100033.95
2023-05-25T09:33:15.403Z,100032.84
2023-05-25T09:35:44.054Z,100029.02
2023-05-25T09:38:14.337Z,100029.61
2023-05-25T09:40:42.835Z,100031.00
2023-05-25T09:43:12.283Z,100033.15
2023-05-25T09:45:39.936Z,100026.70
2023-05-25T09:48:08.433Z,100021.72
2023-05-25T09:50:36.408Z,100021.32
2023-05-25T09:53:04.361Z,100014.38
2023-05-25T09:55:44.391Z,100010.04
2023-05-25T09:58:20.579Z,100013.89
2023-05-25T10:00:49.976Z,100012.46
2023-05-25T10:03:17.643Z,100014.65
2023-05-25T10:05:45.725Z,100012.67
2023-05-25T10:08:13.375Z,100012.98
2023-05-25T10:10:41.485Z,100009.40
2023-05-25T10:13:10.049Z,100001.30
2023-05-25T10:15:38.127Z,100000.53
2023-05-25T10:18:06.163Z,100001.09
2023-05-25T10:20:35.196Z,99996.99
2023-05-25T10:23:11.442Z,100000.52
2023-05-25T10:25:46.206Z,99997.11
2023-05-25T10:28:35.168Z,99990.56
2023-05-25T10:31:03.304Z,99987.94
2023-05-25T10:36:09.527Z,99988.33
2023-05-25T10:38:44.806Z,99988.01
2023-05-25T10:41:12.587Z,99990.30
2023-05-25T10:43:41.560Z,99991.64
2023-05-25T10:46:09.447Z,99989.52
2023-05-25T10:48:38.688Z,99991.94
2023-05-25T10:51:08.846Z,99988.35
2023-05-25T10:53:37.756Z,99980.65
2023-05-25T10:56:10.937Z,99981.00
2023-05-25T10:58:41.802Z,99977.72
2023-05-25T11:01:10.230Z,99971.75
2023-05-25T11:03:47.170Z,99971.83
2023-05-25T11:06:18.605Z,99970.35
2023-05-25T11:08:50.620Z,99970.66
2023-05-25T11:11:18.347Z,99967.46
2023-05-25T11:13:49.837Z,99967.14
2023-05-25T11:16:18.412Z,99960.64
2023-05-25T11:18:59.226Z,99958.08
2023-05-25T11:21:28.271Z,99956.34
2023-05-25T11:24:03.326Z,99958.27
2023-05-25T11:26:34.703Z,99955.02
2023-05-25T11:29:12.722Z,99953.42
2023-05-25T11:31:43.610Z,99957.30
2023-05-25T11:34:14.617Z,99952.23
2023-05-25T11:36:43.028Z,99948.07
2023-05-25T11:39:21.968Z,99948.35
2023-05-25T11:41:58.612Z,99951.85
2023-05-25T11:44:30.433Z,99952.21
2023-05-25T11:47:02.532Z,99949.91
2023-05-25T11:49:30.266Z,99951.52
2023-05-25T11:51:57.939Z,99950.67
2023-05-25T11:54:29.993Z,99953.55
2023-05-25T11:56:59.562Z,99955.03
2023-05-25T11:59:29.814Z,99952.14
2023-05-25T12:04:17.868Z,99950.98
2023-05-25T12:06:48.024Z,99951.63
2023-05-25T12:09:20.804Z,99952.55
2023-05-25T12:11:50.589Z,99946.46
2023-05-25T12:14:18.871Z,99938.38
2023-05-25T12:16:46.551Z,99937.70
2023-05-25T12:19:14.820Z,99934.48
2023-05-25T12:21:42.730Z,99934.27
2023-05-25T12:24:13.013Z,99927.99
2023-05-25T12:26:57.965Z,99923.68
2023-05-25T12:29:26.676Z,99926.13
2023-05-25T12:32:01.892Z,99925.03
2023-05-25T12:34:29.564Z,99920.85
2023-05-25T12:36:59.777Z,99919.87
2023-05-25T12:39:30.521Z,99917.56
2023-05-25T12:41:59.625Z,99923.02
2023-05-25T12:44:31.617Z,99921.55
2023-05-25T12:47:15.736Z,99924.73
2023-05-25T12:49:44.961Z,99922.90
2023-05-25T12:52:13.091Z,99924.86
2023-05-25T12:54:45.432Z,99922.17
2023-05-25T12:57:18.364Z,99922.65
2023-05-25T12:59:47.870Z,99924.16
2023-05-25T13:02:16.684Z,99922.48
2023-05-25T13:04:45.643Z,99923.39
2023-05-25T13:07:13.508Z,99922.13
2023-05-25T13:09:41.798Z,99917.80
2023-05-25T13:12:09.791Z,99913.94
2023-05-25T13:14:37.445Z,99915.10
2023-05-25T13:17:06.158Z,99915.70
2023-05-25T13:19:33.765Z,99922.77
2023-05-25T13:22:01.434Z,99922.76
2023-05-25T13:24:29.502Z,99925.20
2023-05-25T13:26:59.210Z,99927.83
2023-05-25T13:29:26.976Z,99925.95
2023-05-25T13:32:09.496Z,99923.65
2023-05-25T13:34:37.256Z,99926.13
2023-05-25T13:37:06.303Z,99925.36
2023-05-25T13:39:34.931Z,99926.39
2023-05-25T13:42:02.695Z,99927.50
2023-05-25T13:44:30.186Z,99927.17
2023-05-25T13:46:58.400Z,99930.04
2023-05-25T13:49:26.549Z,99923.37
2023-05-25T13:51:55.152Z,99923.30
2023-05-25T13:54:23.966Z,99918.13
2023-05-25T13:56:51.640Z,99918.89
2023-05-25T13:59:20.324Z,99917.86
2023-05-25T14:01:48.974Z,99914.45
2023-05-25T14:04:17.906Z,99912.81
2023-05-25T14:06:46.492Z,99909.75
2023-05-25T14:09:14.766Z,99910.22
2023-05-25T14:11:42.276Z,99907.61
2023-05-25T14:14:23.252Z,99907.14
2023-05-25T14:16:55.055Z,99906.66
2023-05-25T14:19:24.051Z,99909.08
2023-05-25T14:22:00.149Z,99909.27
2023-05-25T14:24:39.497Z,99909.92
2023-05-25T14:27:10.099Z,99909.15
2023-05-25T14:29:37.581Z,99909.05
2023-05-25T14:32:05.298Z,99906.93
2023-05-25T14:34:34.606Z,99909.55
2023-05-25T14:37:02.169Z,99904.91
2023-05-25T14:39:31.572Z,99907.55
2023-05-25T14:41:59.330Z,99901.88
2023-05-25T14:44:26.993Z,99897.37
2023-05-25T14:46:56.082Z,99895.83
2023-05-25T14:49:27.854Z,99893.23
2023-05-25T14:51:56.851Z,99894.45
2023-05-25T14:54:24.403Z,99897.13
2023-05-25T14:56:52.060Z,99901.40
2023-05-25T14:59:19.733Z,99910.16
2023-05-25T15:01:48.859Z,99913.09
2023-05-25T15:04:16.553Z,99917.48
2023-05-25T15:06:44.673Z,99915.66
2023-05-25T15:09:13.651Z,99917.34
2023-05-25T15:11:41.423Z,99918.48
2023-05-25T15:14:09.281Z,99916.74
2023-05-25T15:16:37.124Z,99917.83
2023-05-25T15:19:04.812Z,99922.53
2023-05-25T15:21:41.963Z,99920.34
2023-05-25T15:24:16.981Z,99923.34
2023-05-25T15:26:46.443Z,99931.27
2023-05-25T15:29:22.603Z,99931.11
2023-05-25T15:31:52.454Z,99928.00
2023-05-25T15:34:21.668Z,99929.04
2023-05-25T15:36:50.405Z,99929.25
2023-05-25T15:39:20.214Z,99924.57
2023-05-25T15:41:47.838Z,99922.81
2023-05-25T15:44:15.748Z,99923.06
2023-05-25T15:46:46.702Z,99923.27
2023-05-25T15:49:14.347Z,99926.88
2023-05-25T15:51:42.830Z,99925.30
2023-05-25T15:54:14.623Z,99927.80
2023-05-25T15:56:42.481Z,99925.17
2023-05-25T15:59:10.124Z,99920.55
2023-05-25T16:01:38.106Z,99920.89
2023-05-25T16:04:06.029Z,99915.97
2023-05-25T16:06:33.724Z,99917.02
2023-05-25T16:09:03.028Z,99917.69
2023-05-25T16:11:32.116Z,99916.70
2023-05-25T16:13:59.806Z,99915.63
2023-05-25T16:16:29.209Z,99917.79
2023-05-25T16:18:56.868Z,99913.47
2023-05-25T16:21:24.589Z,99916.45
2023-05-25T16:23:53.182Z,99915.86
2023-05-25T16:26:20.737Z,99919.96
2023-05-25T16:28:48.395Z,99923.52
2023-05-25T16:31:19.043Z,99924.15
2023-05-25T16:33:46.680Z,99924.05
2023-05-25T16:36:14.442Z,99922.69
2023-05-25T16:38:42.105Z,99922.95
2023-05-25T16:41:09.879Z,99925.12
2023-05-25T16:43:37.531Z,99927.37
2023-05-25T16:46:05.342Z,99925.97
2023-05-25T16:48:33.110Z,99921.82
2023-05-25T16:51:01.439Z,99927.33
2023-05-25T16:53:29.103Z,99925.02
2023-05-25T16:55:56.775Z,99921.80
2023-05-25T16:58:25.679Z,99920.33
2023-05-25T17:00:53.419Z,99917.69
2023-05-25T17:03:21.495Z,99917.37
2023-05-25T17:05:49.742Z,99914.13
2023-05-25T17:08:19.184Z,99915.02
2023-05-25T17:10:48.269Z,99916.98
2023-05-25T17:13:16.034Z,99915.98
2023-05-25T17:15:44.050Z,99920.75
2023-05-25T17:18:12.000Z,99923.54
2023-05-25T17:20:39.878Z,99929.65
2023-05-25T17:23:08.545Z,99930.10
2023-05-25T17:25:36.453Z,99931.71
2023-05-25T17:28:04.160Z,99930.23
2023-05-25T17:30:31.989Z,99933.17
2023-05-25T17:33:01.899Z,99933.50
2023-05-25T17:35:30.113Z,99932.01
2023-05-25T17:37:58.187Z,99937.15
2023-05-25T17:40:25.854Z,99936.84
2023-05-25T17:42:54.341Z,99937.09
2023-05-25T17:45:23.029Z,99941.64
2023-05-25T17:47:50.806Z,99942.69
2023-05-25T17:50:18.452Z,99939.85
2023-05-25T17:52:47.064Z,99942.33
2023-05-25T17:55:15.617Z,99943.50
2023-05-25T17:57:43.655Z,99941.52
2023-05-25T18:00:14.190Z,99941.77
2023-05-25T18:02:42.002Z,99944.03
2023-05-25T18:05:09.853Z,99942.40
2023-05-25T18:07:37.632Z,99949.88
2023-05-25T18:10:06.676Z,99948.87
2023-05-25T18:12:34.484Z,99949.44
2023-05-25T18:15:03.470Z,99955.52
2023-05-25T18:17:31.398Z,99954.84
2023-05-25T18:19:59.166Z,99957.47
2023-05-25T18:22:27.178Z,99958.17
2023-05-25T18:24:54.834Z,99959.50
2023-05-25T18:27:22.497Z,99957.90
2023-05-25T18:29:50.170Z,99960.66
2023-05-25T18:32:17.930Z,99964.87
2023-05-25T18:34:45.487Z,99966.83
2023-05-25T18:37:15.107Z,99965.88
2023-05-25T18:39:42.860Z,99967.47
2023-05-25T18:42:10.422Z,99961.98
2023-05-25T18:44:41.565Z,99964.73
2023-05-25T18:47:09.644Z,99964.70
2023-05-25T18:49:38.216Z,99965.06
2023-05-25T18:52:08.438Z,99965.55
2023-05-25T18:54:37.341Z,99970.59
2023-05-25T18:57:05.197Z,99969.60
2023-05-25T18:59:34.099Z,99967.23
2023-05-25T19:02:02.499Z,99964.69
2023-05-25T19:04:30.137Z,99963.17
2023-05-25T19:06:58.815Z,99964.01
2023-05-25T19:09:26.381Z,99965.96
2023-05-25T19:11:53.944Z,99969.02
2023-05-25T19:14:21.604Z,99966.77
2023-05-25T19:16:49.494Z,99965.39
2023-05-25T19:19:17.298Z,99967.42
2023-05-25T19:21:46.019Z,99968.27
2023-05-25T19:24:13.890Z,99973.42
2023-05-25T19:26:41.958Z,99974.14
2023-05-25T19:29:09.647Z,99972.40
2023-05-25T19:31:37.324Z,99969.82
2023-05-25T19:34:05.052Z,99970.23
2023-05-25T19:36:33.127Z,99970.75
2023-05-25T19:39:00.786Z,99970.65
2023-05-25T19:41:28.446Z,99966.91
2023-05-25T19:43:56.119Z,99970.52
2023-05-25T19:46:23.703Z,99973.17
2023-05-25T19:48:52.151Z,99974.00
2023-05-25T19:51:19.914Z,99979.92
2023-05-25T19:53:49.224Z,99981.77
2023-05-25T19:56:16.876Z,99976.27
2023-05-25T19:58:44.541Z,99974.33
2023-05-25T20:01:12.175Z,99977.56
2023-05-25T20:03:39.971Z,99976.99
2023-05-25T20:06:07.733Z,99972.70
2023-05-25T20:08:37.047Z,99974.83
2023-05-25T20:11:04.841Z,99974.48
2023-05-25T20:13:32.977Z,99975.33
2023-05-25T20:16:01.297Z,99978.98
2023-05-25T20:18:29.217Z,99983.89
2023-05-25T20:20:56.777Z,99982.48
2023-05-25T20:23:24.337Z,99978.34
2023-05-25T20:25:53.066Z,99977.09
2023-05-25T20:28:22.120Z,99978.58
2023-05-25T20:30:49.989Z,99980.05
2023-05-25T20:33:17.866Z,99980.30
2023-05-25T20:35:45.802Z,99985.80
2023-05-25T20:38:13.687Z,99985.08
2023-05-25T20:40:41.759Z,99988.34
2023-05-25T20:43:10.349Z,99982.77
2023-05-25T20:45:38.951Z,99983.30
2023-05-25T20:48:06.949Z,99981.68
2023-05-25T20:50:34.789Z,99980.80
2023-05-25T20:53:02.445Z,99981.02
2023-05-25T20:55:31.942Z,99978.43
2023-05-25T20:58:01.648Z,99977.00
2023-05-25T21:00:29.325Z,99973.77
2023-05-25T21:02:57.066Z,99969.60
2023-05-25T21:05:25.356Z,99965.98
2023-05-25T21:07:57.626Z,99965.89
2023-05-25T21:10:30.169Z,99968.97
2023-05-25T21:12:58.788Z,99968.13
2023-05-25T21:15:27.209Z,99970.12
2023-05-25T21:17:55.360Z,99969.91
2023-05-25T21:20:23.342Z,99969.55
2023-05-25T21:22:51.078Z,99965.34
2023-05-25T21:25:18.738Z,99970.41
2023-05-25T21:27:46.398Z,99969.64
2023-05-25T21:30:14.644Z,99968.21
2023-05-25T21:32:42.986Z,99962.87
2023-05-25T21:35:10.714Z,99964.13
2023-05-25T21:37:38.685Z,99964.02
2023-05-25T21:40:29.414Z,99962.58
2023-05-25T21:42:57.711Z,99961.81
2023-05-25T21:45:27.097Z,99958.98
2023-05-25T21:47:56.601Z,99957.44
2023-05-25T21:50:24.427Z,99955.50
2023-05-25T21:52:52.089Z,99957.66
2023-05-25T21:55:20.187Z,99952.23
2023-05-25T21:57:48.134Z,99953.70
2023-05-25T22:00:16.911Z,99951.99
2023-05-25T22:02:45.684Z,99952.42
2023-05-25T22:05:15.957Z,99952.59
2023-05-25T22:07:46.169Z,99955.00
2023-05-25T22:10:14.303Z,99952.60
2023-05-25T22:12:42.101Z,99948.46
2023-05-25T22:15:10.082Z,99953.02
2023-05-25T22:17:38.250Z,99955.29
2023-05-25T22:20:08.456Z,99958.66
2023-05-25T22:22:37.746Z,99953.61
2023-05-25T22:25:06.370Z,99954.23
2023-05-25T22:27:34.140Z,99948.83
2023-05-25T22:30:04.792Z,99947.16
2023-05-25T22:32:34.415Z,99945.39
2023-05-25T22:35:02.645Z,99945.15
2023-05-25T22:37:31.664Z,99943.39
2023-05-25T22:40:00.467Z,99944.52
2023-05-25T22:42:28.437Z,99947.29
2023-05-25T22:45:00.075Z,99950.63
2023-05-25T22:47:28.146Z,99956.15
2023-05-25T22:49:56.122Z,99954.17
2023-05-25T22:52:26.761Z,99961.69
2023-05-25T22:54:58.637Z,99964.48
2023-05-25T22:57:26.672Z,99966.02
2023-05-25T22:59:54.555Z,99967.95
2023-05-25T23:02:22.524Z,99969.30
2023-05-25T23:04:50.341Z,99968.56
2023-05-25T23:07:20.941Z,99971.19
2023-05-25T23:09:50.256Z,99968.94
2023-05-25T23:12:17.969Z,99967.02
2023-05-25T23:14:46.537Z,99961.21
2023-05-25T23:17:15.089Z,99959.52
2023-05-25T23:19:45.047Z,99956.73
2023-05-25T23:22:13.910Z,99955.55
2023-05-25T23:24:42.470Z,99957.23
2023-05-25T23:27:10.241Z,99951.27
2023-05-25T23:29:39.760Z,99952.92
2023-05-25T23:32:07.611Z,99953.61
2023-05-25T23:34:35.495Z,99950.45
2023-05-25T23:37:06.305Z,99948.60
2023-05-25T23:39:34.412Z,99948.71
2023-05-25T23:42:02.552Z,99949.15
2023-05-25T23:44:30.363Z,99950.81
2023-05-25T23:46:59.572Z,99946.91
2023-05-25T23:49:27.422Z,99948.73
2023-05-25T23:51:59.180Z,99948.55
2023-05-25T23:54:27.352Z,99949.69
2023-05-25T23:56:55.731Z,99952.16
2023-05-25T23:59:25.860Z,99959.83
